Time;durP1;ratioP1;P1;durP2;ratioP2;P2;SDS_P1;SDS_P2;PMS_P1;PMS_P2;Temp;Humidity;BMP_temperature;BMP_pressure;BME280_temperature;BME280_humidity;BME280_pressure;Samples;Min_cycle;Max_cycle;Signal;HPM_P1;HPM_P2
2023/07/18 00:00:17;;;;;;;;;29.67;28.00;30.80;54.30;;;;;;111381;1239;53761;-71
2023/07/18 00:03:05;;;;;;;;;28.50;27.00;30.80;54.70;;;;;;111299;1240;46789;-72
2023/07/18 00:05:34;;;;;;;;;32.00;30.00;30.80;54.70;;;;;;111363;1243;49808;-73
2023/07/18 00:08:00;;;;;;;;;28.50;28.00;30.80;54.70;;;;;;111344;1244;49029;-76
2023/07/18 00:10:27;;;;;;;;;28.50;28.00;30.80;54.90;;;;;;111303;1240;53553;-69
2023/07/18 00:12:54;;;;;;;;;31.75;29.25;30.80;54.60;;;;;;111318;1244;44870;-71
2023/07/18 00:15:22;;;;;;;;;26.75;25.25;30.80;54.70;;;;;;111293;1243;50076;-70
2023/07/18 00:17:49;;;;;;;;;30.25;29.00;30.80;54.90;;;;;;111175;1246;49263;-73
2023/07/18 00:20:22;;;;;;;;;29.50;27.75;30.80;54.70;;;;;;111276;1244;53652;-70
2023/07/18 00:22:49;;;;;;;;;28.00;26.67;30.80;54.90;;;;;;111268;1243;45094;-71
2023/07/18 00:25:19;;;;;;;;;32.00;28.75;30.80;54.70;;;;;;111381;1243;49719;-73
2023/07/18 00:27:47;;;;;;;;;30.00;28.50;30.80;54.80;;;;;;111322;1243;49598;-73
2023/07/18 00:30:14;;;;;;;;;30.00;29.00;30.80;55.00;;;;;;111322;1243;53938;-73
2023/07/18 00:32:42;;;;;;;;;32.50;29.75;30.70;54.40;;;;;;111291;1245;44978;-73
2023/07/18 00:35:11;;;;;;;;;31.00;29.00;30.70;54.80;;;;;;111246;1243;49218;-73
2023/07/18 00:37:39;;;;;;;;;29.25;28.25;30.70;54.90;;;;;;111347;1243;49763;-71
2023/07/18 00:40:10;;;;;;;;;33.75;29.75;30.70;54.90;;;;;;111331;1240;53778;-71
2023/07/18 00:42:39;;;;;;;;;29.25;27.75;30.70;54.90;;;;;;111239;1243;44742;-71
2023/07/18 00:45:07;;;;;;;;;30.00;29.00;30.70;54.90;;;;;;111631;1240;48863;-71
2023/07/18 00:47:40;;;;;;;;;27.50;26.25;30.70;55.00;;;;;;111279;1243;49889;-74
2023/07/18 00:50:09;;;;;;;;;32.50;29.75;30.70;55.20;;;;;;111408;1244;54141;-72
2023/07/18 00:52:40;;;;;;;;;29.25;28.25;30.70;55.00;;;;;;111292;1243;44126;-72
2023/07/18 00:55:12;;;;;;;;;28.00;26.33;30.70;55.00;;;;;;111334;1238;49016;-71
2023/07/18 00:57:40;;;;;;;;;30.50;29.00;30.70;55.10;;;;;;111315;1238;49675;-71
2023/07/18 01:00:11;;;;;;;;;28.75;28.25;30.70;55.00;;;;;;111290;1243;54042;-71
2023/07/18 01:02:40;;;;;;;;;30.00;29.00;30.60;54.90;;;;;;111295;1243;45462;-70
2023/07/18 01:05:08;;;;;;;;;27.75;27.25;30.60;55.00;;;;;;111328;1245;49935;-73
2023/07/18 01:07:37;;;;;;;;;30.00;28.75;30.60;55.00;;;;;;111375;1240;49085;-74
2023/07/18 01:10:13;;;;;;;;;29.00;27.75;30.60;55.00;;;;;;111371;1240;54131;-73
2023/07/18 01:12:40;;;;;;;;;31.00;27.33;30.60;55.00;;;;;;111355;1238;44651;-72
2023/07/18 01:15:08;;;;;;;;;28.67;25.67;30.60;55.20;;;;;;111694;1243;48890;-72
2023/07/18 01:17:35;;;;;;;;;28.00;27.75;30.60;55.00;;;;;;111416;1243;49342;-75
2023/07/18 01:20:04;;;;;;;;;29.00;27.00;30.60;55.20;;;;;;111334;1244;53774;-73
2023/07/18 01:22:32;;;;;;;;;28.00;26.00;30.60;55.00;;;;;;111403;1243;44598;-73
2023/07/18 01:24:59;;;;;;;;;27.75;26.50;30.60;55.00;;;;;;111638;1244;49581;-72
2023/07/18 01:27:26;;;;;;;;;28.25;27.00;30.60;55.00;;;;;;111335;1241;49025;-72
2023/07/18 01:29:53;;;;;;;;;27.50;25.25;30.60;54.90;;;;;;111471;1243;53937;-73
2023/07/18 01:32:20;;;;;;;;;25.00;24.00;30.60;54.90;;;;;;111392;1243;44881;-72
2023/07/18 01:34:47;;;;;;;;;25.75;23.75;30.60;54.90;;;;;;111294;1243;49252;-72
2023/07/18 01:37:15;;;;;;;;;27.00;26.25;30.50;54.90;;;;;;111177;1242;49729;-73
2023/07/18 01:39:43;;;;;;;;;30.00;28.25;30.50;54.90;;;;;;111312;1243;55131;-72
2023/07/18 01:42:10;;;;;;;;;27.67;27.00;30.50;54.90;;;;;;111340;1241;44550;-71
2023/07/18 01:44:37;;;;;;;;;22.75;21.75;30.50;54.90;;;;;;111460;1243;49555;-73
2023/07/18 01:47:04;;;;;;;;;28.00;25.50;30.50;54.90;;;;;;111336;1243;49745;-72
2023/07/18 01:49:31;;;;;;;;;25.00;24.00;30.50;55.00;;;;;;111396;1243;53935;-72
2023/07/18 01:51:59;;;;;;;;;25.25;24.75;30.50;54.90;;;;;;111420;1243;44415;-73
2023/07/18 01:54:27;;;;;;;;;27.00;24.50;30.50;54.90;;;;;;111673;1240;49258;-77
2023/07/18 01:56:54;;;;;;;;;23.67;22.67;30.50;55.00;;;;;;111407;1243;50080;-73
2023/07/18 01:59:22;;;;;;;;;23.25;23.00;30.50;54.90;;;;;;111336;1240;54124;-74
2023/07/18 02:01:51;;;;;;;;;26.50;26.00;30.50;54.80;;;;;;111413;1243;45935;-71
2023/07/18 02:04:18;;;;;;;;;28.25;27.00;30.50;54.80;;;;;;111286;1243;49579;-72
2023/07/18 02:06:45;;;;;;;;;24.00;23.00;30.50;54.90;;;;;;111273;1243;49364;-71
2023/07/18 02:09:12;;;;;;;;;25.25;25.00;30.50;54.90;;;;;;111236;1238;53590;-71
2023/07/18 02:11:39;;;;;;;;;23.67;23.00;30.50;54.80;;;;;;111249;1238;44316;-72
2023/07/18 02:14:06;;;;;;;;;23.75;22.25;30.40;54.80;;;;;;111261;1244;49814;-71
2023/07/18 02:16:33;;;;;;;;;27.75;26.50;30.40;54.80;;;;;;111285;1243;49594;-72
2023/07/18 02:19:01;;;;;;;;;23.00;20.00;30.40;54.80;;;;;;111317;1243;54374;-71
2023/07/18 02:21:28;;;;;;;;;24.00;22.67;30.40;54.80;;;;;;111326;1244;45310;-70
2023/07/18 02:23:55;;;;;;;;;23.00;22.25;30.30;55.00;;;;;;111294;1240;50047;-70
2023/07/18 02:26:22;;;;;;;;;24.00;21.75;30.30;54.80;;;;;;111263;1240;50057;-71
2023/07/18 02:28:50;;;;;;;;;20.75;20.50;30.30;54.80;;;;;;111269;1244;53646;-71
2023/07/18 02:31:17;;;;;;;;;24.00;23.00;30.30;54.80;;;;;;111234;1243;45235;-72
2023/07/18 02:33:44;;;;;;;;;25.25;23.75;30.30;54.80;;;;;;111266;1238;49716;-71
2023/07/18 02:36:12;;;;;;;;;25.00;23.75;30.30;54.80;;;;;;111683;1240;48970;-71
2023/07/18 02:38:39;;;;;;;;;24.25;21.50;30.30;54.80;;;;;;111394;1244;54360;-71
2023/07/18 02:41:06;;;;;;;;;24.00;22.50;30.30;54.80;;;;;;111360;1244;44339;-70
2023/07/18 02:43:33;;;;;;;;;23.75;23.00;30.30;54.80;;;;;;111408;1243;50414;-71
2023/07/18 02:46:00;;;;;;;;;23.00;23.00;30.30;54.80;;;;;;111749;1244;49929;-71
2023/07/18 02:48:26;;;;;;;;;24.00;22.00;30.30;55.00;;;;;;111397;1238;53664;-74
2023/07/18 02:50:53;;;;;;;;;24.00;23.25;30.30;54.80;;;;;;111369;1238;45550;-71
2023/07/18 02:53:22;;;;;;;;;19.75;18.25;30.30;54.80;;;;;;111388;1238;49544;-72
2023/07/18 02:55:51;;;;;;;;;21.25;20.50;30.30;54.80;;;;;;111626;1238;49723;-71
2023/07/18 02:58:18;;;;;;;;;20.67;20.00;30.30;55.00;;;;;;111217;1244;54023;-72
2023/07/18 03:00:45;;;;;;;;;25.00;24.00;30.30;54.80;;;;;;111275;1240;44506;-71
2023/07/18 03:03:12;;;;;;;;;24.00;24.00;30.30;54.80;;;;;;111248;1243;50072;-71
2023/07/18 03:05:39;;;;;;;;;22.00;21.33;30.20;54.80;;;;;;111288;1240;49664;-70
2023/07/18 03:08:06;;;;;;;;;20.25;20.00;30.20;55.00;;;;;;111253;1238;53535;-75
2023/07/18 03:10:33;;;;;;;;;21.67;20.33;30.20;54.80;;;;;;111221;1244;44897;-73
2023/07/18 03:13:00;;;;;;;;;21.00;20.25;30.20;54.90;;;;;;111257;1238;48857;-73
2023/07/18 03:15:27;;;;;;;;;25.25;23.25;30.20;55.10;;;;;;111347;1238;49706;-72
2023/07/18 03:17:54;;;;;;;;;24.00;23.00;30.20;55.20;;;;;;111297;1243;53759;-73
2023/07/18 03:20:22;;;;;;;;;20.00;19.00;30.20;55.20;;;;;;111305;1243;44864;-73
2023/07/18 03:22:50;;;;;;;;;18.50;17.50;30.20;55.00;;;;;;111278;1240;49705;-76
2023/07/18 03:25:20;;;;;;;;;23.75;21.00;30.20;55.00;;;;;;111323;1240;49469;-75
2023/07/18 03:27:47;;;;;;;;;22.75;22.25;30.10;55.00;;;;;;111278;1243;54733;-76
2023/07/18 03:30:14;;;;;;;;;22.50;21.00;30.10;55.00;;;;;;111369;1238;44630;-73
2023/07/18 03:32:42;;;;;;;;;22.67;22.67;30.10;55.00;;;;;;111417;1240;49569;-75
2023/07/18 03:35:10;;;;;;;;;23.33;20.33;30.10;55.00;;;;;;111699;1238;49848;-74
2023/07/18 03:37:38;;;;;;;;;22.50;21.25;30.10;55.10;;;;;;111397;1240;53402;-75
2023/07/18 03:40:06;;;;;;;;;22.00;21.00;30.10;55.00;;;;;;111375;1244;44777;-74
2023/07/18 03:42:33;;;;;;;;;21.00;20.00;30.10;55.00;;;;;;111443;1240;50111;-73
2023/07/18 03:45:01;;;;;;;;;20.75;20.00;30.10;55.10;;;;;;111615;1244;48872;-75
2023/07/18 03:47:28;;;;;;;;;21.25;20.75;30.10;55.30;;;;;;111376;1244;53671;-75
2023/07/18 03:49:55;;;;;;;;;23.25;22.75;30.10;55.10;;;;;;111412;1238;44730;-72
2023/07/18 03:52:23;;;;;;;;;23.50;20.75;30.10;55.10;;;;;;111398;1243;49946;-71
2023/07/18 03:54:50;;;;;;;;;20.25;19.00;30.10;55.10;;;;;;111676;1240;49674;-72
2023/07/18 03:57:20;;;;;;;;;21.00;20.33;30.10;55.40;;;;;;111354;1244;54042;-72
2023/07/18 03:59:47;;;;;;;;;18.00;17.33;30.10;55.10;;;;;;111482;1239;44749;-71
2023/07/18 04:02:14;;;;;;;;;22.00;21.00;30.10;55.20;;;;;;111264;1243;49307;-71
2023/07/18 04:04:41;;;;;;;;;22.75;20.00;30.10;55.40;;;;;;111249;1240;49956;-70
2023/07/18 04:07:08;;;;;;;;;22.00;21.67;30.00;55.10;;;;;;111273;1239;53359;-72
2023/07/18 04:09:35;;;;;;;;;22.00;21.00;30.00;55.10;;;;;;111306;1243;44190;-74
2023/07/18 04:12:03;;;;;;;;;21.00;20.00;30.00;55.20;;;;;;111283;1243;48990;-74
2023/07/18 04:14:30;;;;;;;;;21.75;20.00;30.00;54.80;;;;;;111161;1238;49405;-72
2023/07/18 04:16:57;;;;;;;;;21.00;20.00;30.00;55.30;;;;;;111261;1244;54026;-73
2023/07/18 04:19:24;;;;;;;;;20.75;20.00;30.00;55.10;;;;;;111270;1240;44174;-72
2023/07/18 04:21:50;;;;;;;;;19.50;19.00;30.00;55.30;;;;;;111283;1243;50400;-71
2023/07/18 04:24:17;;;;;;;;;20.00;19.00;30.00;55.10;;;;;;111348;1240;49220;-72
2023/07/18 04:26:44;;;;;;;;;19.00;17.75;30.00;55.30;;;;;;111311;1243;55126;-73
2023/07/18 04:29:11;;;;;;;;;19.75;18.00;30.00;55.10;;;;;;111341;1238;44520;-73
2023/07/18 04:31:38;;;;;;;;;18.00;18.00;30.00;55.30;;;;;;111245;1243;50420;-73
2023/07/18 04:34:05;;;;;;;;;20.00;19.75;30.00;55.10;;;;;;111630;1238;49180;-71
2023/07/18 04:36:33;;;;;;;;;21.00;20.50;29.90;55.20;;;;;;111205;1243;53516;-73
2023/07/18 04:38:59;;;;;;;;;19.50;19.00;30.00;55.10;;;;;;111303;1239;44988;-74
2023/07/18 04:41:26;;;;;;;;;16.00;15.25;30.00;55.00;;;;;;111395;1239;50473;-72
2023/07/18 04:43:53;;;;;;;;;19.50;18.75;30.00;55.00;;;;;;111539;1243;49798;-71
2023/07/18 04:46:21;;;;;;;;;20.50;19.00;30.00;55.10;;;;;;111260;1243;54345;-71
2023/07/18 04:48:48;;;;;;;;;20.00;18.67;30.00;55.00;;;;;;111282;1243;44406;-72
2023/07/18 04:51:16;;;;;;;;;18.25;17.25;30.00;55.10;;;;;;111262;1238;49396;-75
2023/07/18 04:53:43;;;;;;;;;22.00;20.25;30.00;54.90;;;;;;111456;1238;49773;-71
2023/07/18 04:56:10;;;;;;;;;18.75;18.00;30.00;54.90;;;;;;111144;1244;661854;-69
2023/07/18 04:58:37;;;;;;;;;21.75;19.00;30.00;55.60;;;;;;111314;1239;44508;-72
2023/07/18 05:01:04;;;;;;;;;22.75;20.25;30.00;56.10;;;;;;111279;1240;49563;-69
2023/07/18 05:03:31;;;;;;;;;24.00;22.00;29.90;57.10;;;;;;111262;1238;49663;-72
2023/07/18 05:05:58;;;;;;;;;21.00;20.33;29.90;57.80;;;;;;111142;1244;54437;-74
2023/07/18 05:08:25;;;;;;;;;24.33;21.67;29.80;57.70;;;;;;111286;1243;45144;-71
2023/07/18 05:10:59;;;;;;;;;22.75;20.75;29.80;57.50;;;;;;111277;1243;49682;-73
2023/07/18 05:13:26;;;;;;;;;41.25;33.25;29.80;57.50;;;;;;111158;1241;49652;-70
2023/07/18 05:15:53;;;;;;;;;67.33;49.67;29.80;58.00;;;;;;111148;1239;54286;-71
2023/07/18 05:18:20;;;;;;;;;72.00;51.00;29.80;57.60;;;;;;111275;1244;44994;-68
2023/07/18 05:20:47;;;;;;;;;64.50;45.75;29.80;57.60;;;;;;111261;1243;50379;-68
2023/07/18 05:23:14;;;;;;;;;62.00;47.00;29.80;57.80;;;;;;111250;1241;49574;-68
2023/07/18 05:25:41;;;;;;;;;56.50;42.00;29.80;57.80;;;;;;111143;1238;54426;-67
2023/07/18 05:28:08;;;;;;;;;48.00;37.33;29.80;57.40;;;;;;111238;1243;44871;-65
2023/07/18 05:30:35;;;;;;;;;48.50;36.75;29.80;56.70;;;;;;111392;1238;49378;-66
2023/07/18 05:33:02;;;;;;;;;46.75;36.00;29.90;55.20;;;;;;111288;1243;49456;-67
2023/07/18 05:35:28;;;;;;;;;47.67;35.00;29.90;54.50;;;;;;111124;1243;54208;-63
2023/07/18 05:37:56;;;;;;;;;43.33;34.67;29.80;53.80;;;;;;111269;1240;44635;-64
2023/07/18 05:40:23;;;;;;;;;44.00;33.00;29.90;53.00;;;;;;111297;1244;48932;-64
2023/07/18 05:42:50;;;;;;;;;43.00;32.50;29.90;51.80;;;;;;111266;1245;49953;-64
2023/07/18 05:45:17;;;;;;;;;44.75;34.75;29.90;51.10;;;;;;111317;1238;53237;-64
2023/07/18 05:47:44;;;;;;;;;37.00;30.00;29.90;50.90;;;;;;111279;1244;44513;-64
2023/07/18 05:50:11;;;;;;;;;40.00;32.00;29.90;49.70;;;;;;111206;1244;49618;-64
2023/07/18 05:52:38;;;;;;;;;41.50;31.50;29.90;49.20;;;;;;111217;1244;49582;-64
2023/07/18 05:55:07;;;;;;;;;42.33;30.33;29.90;48.50;;;;;;111200;1244;54279;-64
2023/07/18 05:57:34;;;;;;;;;38.00;31.33;29.90;48.20;;;;;;111323;1243;44886;-64
2023/07/18 06:00:06;;;;;;;;;40.50;31.25;29.90;47.80;;;;;;111294;1240;49984;-64
2023/07/18 06:02:34;;;;;;;;;40.33;32.33;29.80;47.40;;;;;;111273;1238;48889;-63
2023/07/18 06:05:01;;;;;;;;;36.25;29.25;29.80;47.10;;;;;;111349;1240;53539;-63
2023/07/18 06:07:28;;;;;;;;;37.00;32.00;29.80;47.10;;;;;;111258;1244;45175;-63
2023/07/18 06:09:55;;;;;;;;;33.25;29.00;29.80;47.20;;;;;;111324;1242;49388;-65
2023/07/18 06:12:22;;;;;;;;;33.67;29.67;29.80;47.30;;;;;;111280;1242;49374;-64
2023/07/18 06:14:49;;;;;;;;;33.75;30.50;29.80;47.60;;;;;;111268;1238;54391;-63
2023/07/18 06:17:16;;;;;;;;;33.50;29.00;29.80;48.00;;;;;;111223;1244;44280;-64
2023/07/18 06:19:47;;;;;;;;;34.50;29.00;29.80;48.30;;;;;;111295;1243;49266;-66
2023/07/18 06:22:14;;;;;;;;;33.25;28.00;29.80;48.60;;;;;;111282;1240;50213;-65
2023/07/18 06:24:41;;;;;;;;;39.00;31.00;29.70;48.80;;;;;;111299;1238;54556;-66
2023/07/18 06:27:08;;;;;;;;;23.50;21.75;29.80;49.70;;;;;;111305;1244;45023;-68
2023/07/18 06:29:35;;;;;;;;;30.50;23.25;29.70;50.00;;;;;;111392;1240;49390;-67
2023/07/18 06:32:05;;;;;;;;;29.50;26.50;29.70;49.50;;;;;;111384;1238;50141;-65
2023/07/18 06:34:33;;;;;;;;;26.50;22.25;29.70;50.70;;;;;;111297;1240;54108;-63
2023/07/18 06:37:02;;;;;;;;;29.00;24.00;29.70;50.70;;;;;;111293;1244;44636;-63
2023/07/18 06:39:29;;;;;;;;;27.67;24.33;29.60;50.80;;;;;;111335;1245;49821;-64
2023/07/18 06:41:57;;;;;;;;;27.33;24.00;29.70;51.10;;;;;;111284;1244;49917;-65
2023/07/18 06:44:24;;;;;;;;;29.00;24.00;29.80;51.40;;;;;;111251;1243;53611;-64
2023/07/18 06:46:51;;;;;;;;;24.75;21.00;29.80;51.50;;;;;;111244;1240;44745;-63
2023/07/18 06:49:20;;;;;;;;;27.00;24.75;29.80;51.70;;;;;;111346;1238;49496;-63
2023/07/18 06:51:49;;;;;;;;;28.67;25.00;29.80;51.80;;;;;;111321;1241;50838;-66
2023/07/18 06:54:16;;;;;;;;;29.33;25.00;29.90;51.80;;;;;;111267;1243;53844;-65
2023/07/18 06:56:44;;;;;;;;;22.75;21.00;29.90;52.00;;;;;;111238;1243;45092;-65
2023/07/18 06:59:13;;;;;;;;;32.00;26.50;30.00;51.50;;;;;;111234;1243;49906;-60
2023/07/18 07:01:40;;;;;;;;;34.00;29.25;30.00;52.20;;;;;;111267;1238;49421;-60
2023/07/18 07:04:07;;;;;;;;;30.75;27.50;30.10;52.20;;;;;;111256;1239;53696;-61
2023/07/18 07:06:41;;;;;;;;;33.25;28.75;30.10;52.40;;;;;;111231;1241;45151;-61
2023/07/18 07:09:09;;;;;;;;;36.00;31.50;30.10;52.50;;;;;;111282;1243;49278;-64
2023/07/18 07:11:36;;;;;;;;;36.00;31.50;30.10;52.40;;;;;;111148;1246;49800;-59
2023/07/18 07:14:07;;;;;;;;;35.67;30.00;30.00;52.60;;;;;;111244;1238;53828;-65
2023/07/18 07:16:35;;;;;;;;;39.50;30.75;30.00;53.00;;;;;;111194;1243;44663;-66
2023/07/18 07:19:02;;;;;;;;;33.00;27.00;30.00;52.90;;;;;;111234;1242;48909;-65
2023/07/18 07:21:29;;;;;;;;;30.00;27.25;30.00;53.20;;;;;;111287;1238;49493;-66
2023/07/18 07:23:56;;;;;;;;;32.00;27.00;30.00;53.20;;;;;;111296;1240;53822;-66
2023/07/18 07:26:24;;;;;;;;;29.00;26.50;30.00;53.40;;;;;;111228;1243;44351;-65
2023/07/18 07:28:50;;;;;;;;;32.50;26.75;30.00;53.50;;;;;;111259;1243;50210;-66
2023/07/18 07:31:17;;;;;;;;;30.25;25.00;30.00;53.30;;;;;;111227;1244;49810;-63
2023/07/18 07:33:44;;;;;;;;;27.00;22.75;30.00;53.70;;;;;;111244;1240;54776;-64
2023/07/18 07:36:11;;;;;;;;;29.00;25.25;30.00;53.70;;;;;;111274;1240;45052;-62
2023/07/18 07:38:38;;;;;;;;;26.00;23.00;30.00;53.70;;;;;;111260;1240;50170;-63
2023/07/18 07:41:05;;;;;;;;;32.00;25.00;30.00;53.60;;;;;;111274;1240;49731;-63
2023/07/18 07:43:33;;;;;;;;;32.00;25.25;30.00;53.90;;;;;;111289;1243;54192;-63
2023/07/18 07:46:00;;;;;;;;;25.75;22.00;30.00;53.80;;;;;;111338;1243;44825;-63
2023/07/18 07:48:28;;;;;;;;;33.33;27.67;30.00;53.70;;;;;;111334;1241;49736;-63
2023/07/18 07:50:55;;;;;;;;;26.75;23.00;30.00;54.00;;;;;;111250;1243;50610;-65
2023/07/18 07:53:23;;;;;;;;;27.50;24.00;30.10;53.90;;;;;;111252;1243;53607;-64
2023/07/18 07:55:50;;;;;;;;;25.00;22.00;30.10;53.90;;;;;;111475;1244;44922;-64
2023/07/18 07:58:16;;;;;;;;;27.25;23.50;30.10;54.00;;;;;;111264;1246;50153;-64
2023/07/18 08:00:43;;;;;;;;;24.25;23.75;30.10;53.90;;;;;;111226;1240;49952;-62
2023/07/18 08:03:10;;;;;;;;;23.50;22.00;30.20;54.00;;;;;;111238;1241;54044;-63
2023/07/18 08:05:37;;;;;;;;;23.25;21.50;30.20;54.00;;;;;;111281;1240;44551;-62
2023/07/18 08:08:04;;;;;;;;;23.75;20.25;30.20;54.10;;;;;;111245;1240;49290;-64
2023/07/18 08:10:31;;;;;;;;;22.75;21.75;30.20;54.00;;;;;;111307;1243;50298;-62
2023/07/18 08:12:58;;;;;;;;;26.25;22.00;30.20;54.00;;;;;;111305;1243;54183;-63
2023/07/18 08:15:26;;;;;;;;;24.75;22.75;30.20;54.10;;;;;;111321;1243;45418;-62
2023/07/18 08:17:57;;;;;;;;;25.50;22.25;30.20;54.00;;;;;;111294;1239;49478;-63
2023/07/18 08:20:23;;;;;;;;;22.25;19.25;30.20;54.00;;;;;;111275;1243;49457;-63
2023/07/18 08:22:50;;;;;;;;;22.50;20.75;30.30;54.10;;;;;;111242;1241;53661;-62
2023/07/18 08:25:17;;;;;;;;;23.75;20.75;30.30;54.00;;;;;;111276;1238;44433;-63
2023/07/18 08:27:45;;;;;;;;;23.00;19.50;30.30;54.30;;;;;;111316;1238;49365;-62
2023/07/18 08:30:12;;;;;;;;;20.67;20.00;30.30;54.00;;;;;;111203;1241;49089;-64
2023/07/18 08:32:40;;;;;;;;;23.50;20.50;30.30;54.20;;;;;;111271;1240;54319;-61
2023/07/18 08:35:08;;;;;;;;;20.67;17.67;30.30;54.10;;;;;;111286;1243;44312;-67
2023/07/18 08:37:35;;;;;;;;;24.50;21.75;30.40;54.20;;;;;;111351;1243;50117;-65
2023/07/18 08:40:04;;;;;;;;;18.25;16.25;30.40;54.00;;;;;;111308;1238;49948;-65
2023/07/18 08:42:33;;;;;;;;;21.00;18.00;30.50;54.00;;;;;;111254;1243;54809;-64
2023/07/18 08:45:01;;;;;;;;;20.67;19.67;30.50;54.00;;;;;;111164;1245;44231;-64
2023/07/18 08:47:28;;;;;;;;;22.50;20.00;30.50;54.10;;;;;;111273;1244;49680;-63
2023/07/18 08:49:56;;;;;;;;;22.00;19.00;30.50;53.60;;;;;;111321;1244;49451;-64
2023/07/18 08:52:23;;;;;;;;;24.50;21.00;30.50;53.60;;;;;;111349;1239;53528;-65
2023/07/18 08:54:49;;;;;;;;;18.00;17.00;30.60;53.60;;;;;;111425;1242;45062;-65
2023/07/18 08:57:16;;;;;;;;;24.00;21.00;30.60;53.70;;;;;;111291;1241;49635;-67
2023/07/18 08:59:44;;;;;;;;;20.00;18.67;30.60;53.60;;;;;;111239;1240;49428;-63
2023/07/18 09:02:10;;;;;;;;;18.00;16.33;30.60;53.40;;;;;;111264;1243;54289;-66
2023/07/18 09:04:37;;;;;;;;;20.00;18.00;30.70;53.50;;;;;;111286;1243;44796;-64
2023/07/18 09:07:04;;;;;;;;;22.67;18.33;30.70;53.80;;;;;;111364;1244;50331;-65
2023/07/18 09:09:31;;;;;;;;;19.75;18.25;30.70;53.80;;;;;;111464;1244;49245;-63
2023/07/18 09:12:00;;;;;;;;;20.33;18.33;30.80;53.90;;;;;;111235;1243;54235;-63
2023/07/18 09:14:27;;;;;;;;;21.00;17.25;30.80;53.60;;;;;;111316;1242;45315;-66
2023/07/18 09:16:55;;;;;;;;;19.75;18.75;30.80;53.60;;;;;;111316;1240;48804;-65
2023/07/18 09:19:37;;;;;;;;;19.33;18.33;30.80;53.50;;;;;;111304;1244;50902;-64
2023/07/18 09:22:06;;;;;;;;;19.00;18.00;30.90;53.50;;;;;;111273;1239;53497;-65
2023/07/18 09:24:35;;;;;;;;;16.50;15.25;30.90;53.40;;;;;;111297;1240;44684;-65
2023/07/18 09:27:08;;;;;;;;;20.50;17.00;30.90;53.50;;;;;;111246;1244;49577;-67
2023/07/18 09:29:35;;;;;;;;;16.25;15.25;31.00;53.30;;;;;;111441;1244;49569;-69
2023/07/18 09:32:03;;;;;;;;;17.25;16.00;31.00;52.80;;;;;;111452;1243;53675;-65
2023/07/18 09:34:30;;;;;;;;;16.67;15.33;31.00;53.30;;;;;;111343;1238;44261;-68
2023/07/18 09:37:01;;;;;;;;;19.00;16.33;31.00;53.10;;;;;;111316;1238;49258;-64
2023/07/18 09:39:28;;;;;;;;;17.00;16.00;31.00;53.30;;;;;;111294;1243;49360;-64
2023/07/18 09:41:56;;;;;;;;;18.33;17.00;31.10;53.40;;;;;;111270;1238;54203;-66
2023/07/18 09:44:25;;;;;;;;;14.00;13.00;31.10;53.20;;;;;;111159;1244;45260;-64
2023/07/18 09:46:53;;;;;;;;;16.75;14.50;31.10;53.00;;;;;;111238;1240;49367;-64
2023/07/18 09:49:21;;;;;;;;;16.50;13.50;31.20;53.10;;;;;;111237;1243;49879;-65
2023/07/18 09:51:59;;;;;;;;;15.33;13.00;31.20;52.80;;;;;;111304;1240;54089;-66
2023/07/18 09:54:26;;;;;;;;;12.50;11.50;31.20;52.70;;;;;;111296;1240;44155;-66
2023/07/18 09:56:57;;;;;;;;;17.00;16.00;31.20;52.30;;;;;;111283;1238;49426;-68
2023/07/18 09:59:26;;;;;;;;;13.33;12.67;31.30;53.00;;;;;;111376;1243;48847;-67
2023/07/18 10:01:54;;;;;;;;;15.33;13.67;31.30;52.60;;;;;;111359;1244;53588;-67
2023/07/18 10:04:22;;;;;;;;;14.25;13.50;31.30;52.50;;;;;;111720;1241;45551;-67
2023/07/18 10:06:50;;;;;;;;;12.25;11.50;31.30;52.30;;;;;;111366;1243;48987;-67
2023/07/18 10:09:17;;;;;;;;;13.33;12.33;31.30;52.10;;;;;;111375;1243;49926;-67
2023/07/18 10:12:03;;;;;;;;;14.00;13.00;31.30;52.00;;;;;;111360;1241;53433;-68
2023/07/18 10:14:42;;;;;;;;;15.00;13.00;31.40;52.20;;;;;;111680;1238;45194;-68
2023/07/18 10:17:09;;;;;;;;;12.25;11.50;31.40;52.00;;;;;;111387;1241;49224;-65
2023/07/18 10:19:46;;;;;;;;;14.75;13.75;31.50;52.20;;;;;;111259;1244;49885;-63
2023/07/18 10:22:28;;;;;;;;;14.25;12.25;31.50;52.10;;;;;;111309;1240;54160;-63
2023/07/18 10:25:08;;;;;;;;;13.25;12.25;31.50;51.90;;;;;;111674;1238;44539;-64
2023/07/18 10:27:43;;;;;;;;;14.75;13.00;31.50;51.70;;;;;;111210;1245;49482;-65
2023/07/18 10:30:12;;;;;;;;;14.67;11.67;31.50;51.50;;;;;;111227;1238;49809;-65
2023/07/18 10:32:42;;;;;;;;;13.25;12.25;31.60;51.50;;;;;;111236;1243;54689;-67
2023/07/18 10:35:11;;;;;;;;;12.25;11.50;31.60;52.10;;;;;;111682;1239;44580;-64
2023/07/18 10:37:43;;;;;;;;;14.75;13.75;31.60;51.40;;;;;;111267;1243;49566;-64
2023/07/18 10:40:10;;;;;;;;;12.33;12.33;31.70;51.50;;;;;;111266;1243;49542;-67
2023/07/18 10:42:42;;;;;;;;;13.67;12.33;31.70;51.40;;;;;;111358;1239;53725;-65
2023/07/18 10:45:09;;;;;;;;;13.25;11.25;31.70;51.70;;;;;;111231;1238;44834;-64
2023/07/18 10:47:37;;;;;;;;;14.00;13.25;31.70;51.20;;;;;;111252;1243;49640;-68
2023/07/18 10:50:06;;;;;;;;;11.33;11.00;31.70;51.10;;;;;;111319;1238;50720;-66
2023/07/18 10:52:34;;;;;;;;;11.50;11.00;31.70;51.40;;;;;;111331;1243;54337;-67
2023/07/18 10:55:06;;;;;;;;;14.50;12.75;31.70;50.90;;;;;;111649;1243;44852;-66
2023/07/18 10:57:37;;;;;;;;;10.67;10.00;31.70;51.40;;;;;;111260;1243;49012;-64
2023/07/18 11:00:05;;;;;;;;;11.00;10.00;31.70;51.20;;;;;;111300;1243;50292;-67
2023/07/18 11:02:41;;;;;;;;;12.25;12.25;31.70;51.00;;;;;;111360;1241;54385;-65
2023/07/18 11:05:12;;;;;;;;;12.25;11.25;31.70;51.00;;;;;;111322;1238;44832;-66
2023/07/18 11:07:41;;;;;;;;;12.00;12.00;31.70;51.10;;;;;;111438;1240;49423;-65
2023/07/18 11:10:12;;;;;;;;;12.75;12.00;31.70;50.60;;;;;;111245;1238;49478;-66
2023/07/18 11:12:40;;;;;;;;;12.00;11.00;31.70;50.80;;;;;;111389;1243;54371;-67
2023/07/18 11:15:09;;;;;;;;;11.75;10.25;31.70;50.50;;;;;;111711;1243;44437;-66
2023/07/18 11:17:38;;;;;;;;;12.00;11.67;31.70;50.50;;;;;;111346;1244;49391;-65
2023/07/18 11:20:10;;;;;;;;;12.00;11.00;31.70;50.30;;;;;;111276;1245;49422;-64
2023/07/18 11:22:37;;;;;;;;;11.50;10.50;31.70;50.40;;;;;;111211;1241;54366;-64
2023/07/18 11:25:05;;;;;;;;;14.00;12.00;31.70;50.40;;;;;;111236;1240;44067;-66
2023/07/18 11:27:32;;;;;;;;;12.50;11.50;31.80;50.40;;;;;;111274;1238;49398;-68
2023/07/18 11:30:05;;;;;;;;;12.00;11.25;31.80;50.10;;;;;;111399;1238;48898;-65
2023/07/18 11:32:37;;;;;;;;;11.75;10.50;31.80;50.00;;;;;;111275;1240;54761;-66
2023/07/18 11:35:07;;;;;;;;;12.00;11.00;31.80;50.00;;;;;;111291;1244;44334;-68
2023/07/18 11:37:35;;;;;;;;;10.50;9.25;31.80;50.20;;;;;;111388;1243;49314;-68
2023/07/18 11:40:02;;;;;;;;;10.75;10.25;31.80;50.70;;;;;;111416;1241;49795;-65
2023/07/18 11:42:49;;;;;;;;;11.50;10.50;31.80;50.00;;;;;;111275;1243;53548;-69
2023/07/18 11:45:27;;;;;;;;;11.00;10.00;31.80;49.80;;;;;;111669;1238;45411;-64
2023/07/18 11:47:56;;;;;;;;;12.00;10.00;31.80;49.80;;;;;;111424;1243;48889;-65
2023/07/18 11:50:28;;;;;;;;;11.00;10.00;31.90;49.70;;;;;;111270;1241;49649;-66
2023/07/18 11:52:57;;;;;;;;;11.50;9.25;31.90;49.60;;;;;;111302;1238;54023;-67
2023/07/18 11:55:25;;;;;;;;;12.25;11.25;31.90;49.60;;;;;;111298;1238;45612;-64
2023/07/18 11:57:52;;;;;;;;;11.25;10.00;31.90;49.90;;;;;;111289;1240;49663;-64
2023/07/18 12:00:20;;;;;;;;;12.75;11.50;31.90;49.80;;;;;;111284;1240;48901;-65
2023/07/18 12:02:48;;;;;;;;;10.25;9.50;31.90;49.80;;;;;;111254;1243;54593;-66
2023/07/18 12:05:15;;;;;;;;;13.00;12.33;31.80;49.80;;;;;;111305;1238;44319;-65
2023/07/18 12:07:44;;;;;;;;;10.50;9.50;31.80;50.00;;;;;;111282;1238;49453;-66
2023/07/18 12:10:14;;;;;;;;;11.50;10.75;31.80;49.80;;;;;;111281;1240;50081;-66
2023/07/18 12:12:41;;;;;;;;;12.00;11.00;31.80;49.60;;;;;;111339;1243;53631;-67
2023/07/18 12:15:10;;;;;;;;;11.50;11.00;31.80;49.60;;;;;;111321;1243;44778;-67
2023/07/18 12:17:39;;;;;;;;;12.25;10.75;31.80;49.50;;;;;;111231;1243;50598;-64
2023/07/18 12:20:07;;;;;;;;;10.33;9.00;31.80;49.60;;;;;;111235;1243;50808;-65
2023/07/18 12:22:39;;;;;;;;;10.00;9.00;31.80;49.60;;;;;;111234;1243;53282;-65